createdAt,value
2024-05-09T00:00:45.992Z,101151.03
2024-05-09T00:03:34.539Z,101150.09
2024-05-09T00:06:03.050Z,101158.09
2024-05-09T00:08:31.938Z,101156.44
2024-05-09T00:11:00.183Z,101155.50
2024-05-09T00:13:28.902Z,101150.16
2024-05-09T00:15:56.973Z,101145.09
2024-05-09T00:18:25.496Z,101155.56
2024-05-09T00:20:53.760Z,101148.41
2024-05-09T00:23:22.499Z,101147.50
2024-05-09T00:25:50.671Z,101148.34
2024-05-09T00:28:19.246Z,101140.56
2024-05-09T00:30:47.293Z,101147.50
2024-05-09T00:33:16.227Z,101159.03
2024-05-09T00:35:44.661Z,101152.81
2024-05-09T00:38:13.195Z,101152.81
2024-05-09T00:40:43.154Z,101157.28
2024-05-09T00:43:14.195Z,101145.75
2024-05-09T00:45:43.975Z,101149.28
2024-05-09T00:48:15.247Z,101147.50
2024-05-09T00:50:45.861Z,101127.22
2024-05-09T00:53:15.130Z,101143.88
2024-05-09T00:55:43.468Z,101145.75
2024-05-09T00:58:12.652Z,101142.16
2024-05-09T01:00:41.684Z,101151.03
2024-05-09T01:03:12.540Z,101145.69
2024-05-09T01:05:43.010Z,101145.75
2024-05-09T01:08:12.145Z,101142.16
2024-05-09T01:10:43.911Z,101142.16
2024-05-09T01:13:13.838Z,101144.81
2024-05-09T01:15:42.037Z,101145.75
2024-05-09T01:18:12.258Z,101146.69
2024-05-09T01:20:44.205Z,101148.41
2024-05-09T01:23:15.764Z,101150.22
2024-05-09T01:25:45.977Z,101152.03
2024-05-09T01:28:16.582Z,101152.88
2024-05-09T01:30:44.752Z,101160.03
2024-05-09T01:33:13.603Z,101159.09
2024-05-09T01:35:42.983Z,101152.88
2024-05-09T01:38:14.052Z,101152.88
2024-05-09T01:40:43.181Z,101165.28
2024-05-09T01:43:12.346Z,101166.22
2024-05-09T01:45:41.092Z,101157.28
2024-05-09T01:48:10.972Z,101158.16
2024-05-09T01:50:42.187Z,101163.50
2024-05-09T01:53:13.859Z,101158.16
2024-05-09T01:55:43.066Z,101161.69
2024-05-09T01:58:11.347Z,101162.69
2024-05-09T02:00:43.453Z,101166.16
2024-05-09T02:03:15.874Z,101167.03
2024-05-09T02:05:48.387Z,101165.38
2024-05-09T02:08:18.527Z,101157.44
2024-05-09T02:10:48.456Z,101162.69
2024-05-09T02:13:17.543Z,101167.16
2024-05-09T02:15:46.237Z,101167.97
2024-05-09T02:18:14.601Z,101164.44
2024-05-09T02:20:43.956Z,101163.63
2024-05-09T02:23:12.754Z,101159.22
2024-05-09T02:25:41.604Z,101156.50
2024-05-09T02:28:09.774Z,101155.63
2024-05-09T02:30:41.215Z,101161.03
2024-05-09T02:33:12.782Z,101150.34
2024-05-09T02:35:43.940Z,101151.22
2024-05-09T02:38:12.949Z,101154.69
2024-05-09T02:40:41.867Z,101160.03
2024-05-09T02:43:12.663Z,101159.16
2024-05-09T02:45:41.947Z,101162.69
2024-05-09T02:48:11.054Z,101164.50
2024-05-09T02:50:44.644Z,101164.50
2024-05-09T02:53:13.991Z,101167.09
2024-05-09T02:55:43.350Z,101163.63
2024-05-09T02:58:11.762Z,101161.81
2024-05-09T03:00:42.249Z,101171.63
2024-05-09T03:03:13.708Z,101160.09
2024-05-09T03:05:45.550Z,101163.63
2024-05-09T03:08:14.135Z,101158.28
2024-05-09T03:10:43.023Z,101162.75
2024-05-09T03:13:13.554Z,101168.09
2024-05-09T03:15:43.812Z,101162.75
2024-05-09T03:18:12.529Z,101163.63
2024-05-09T03:20:41.510Z,101156.50
2024-05-09T03:23:10.354Z,101160.03
2024-05-09T03:25:39.151Z,101152.09
2024-05-09T03:28:07.641Z,101153.88
2024-05-09T03:30:41.295Z,101149.50
2024-05-09T03:33:13.370Z,101158.28
2024-05-09T03:35:45.431Z,101152.16
2024-05-09T03:38:13.818Z,101162.69
2024-05-09T03:40:45.844Z,101160.09
2024-05-09T03:43:14.439Z,101155.69
2024-05-09T03:45:43.216Z,101162.81
2024-05-09T03:48:11.573Z,101161.03
2024-05-09T03:50:40.376Z,101168.97
2024-05-09T03:53:12.343Z,101161.03
2024-05-09T03:55:41.068Z,101160.97
2024-05-09T03:58:09.248Z,101162.75
2024-05-09T04:00:39.604Z,101165.44
2024-05-09T04:03:11.280Z,101171.63
2024-05-09T04:05:42.858Z,101177.03
2024-05-09T04:08:14.898Z,101179.75
2024-05-09T04:10:43.645Z,101172.56
2024-05-09T04:13:11.842Z,101177.91
2024-05-09T04:15:40.375Z,101174.44
2024-05-09T04:18:08.637Z,101185.91
2024-05-09T04:20:40.116Z,101188.56
2024-05-09T04:23:13.697Z,101186.84
2024-05-09T04:25:45.083Z,101188.56
2024-05-09T04:28:14.353Z,101193.91
2024-05-09T04:30:43.669Z,101193.91
2024-05-09T04:33:13.776Z,101196.50
2024-05-09T04:35:43.745Z,101198.38
2024-05-09T04:38:15.795Z,101202.78
2024-05-09T04:40:44.721Z,101203.66
2024-05-09T04:43:16.348Z,101204.59
2024-05-09T04:45:45.021Z,101206.31
2024-05-09T04:48:13.327Z,101206.31
2024-05-09T04:50:42.224Z,101204.59
2024-05-09T04:53:11.478Z,101208.19
2024-05-09T04:55:40.705Z,101212.66
2024-05-09T04:58:09.468Z,101206.44
2024-05-09T05:00:41.316Z,101217.06
2024-05-09T05:03:13.628Z,101213.44
2024-05-09T05:05:46.160Z,101216.06
2024-05-09T05:08:15.477Z,101216.94
2024-05-09T05:10:44.553Z,101224.13
2024-05-09T05:13:25.192Z,101219.66
2024-05-09T05:15:56.759Z,101216.06
2024-05-09T05:18:27.534Z,101220.47
2024-05-09T05:20:57.012Z,101218.84
2024-05-09T05:23:25.117Z,101213.38
2024-05-09T05:25:55.688Z,101216.19
2024-05-09T05:28:24.315Z,101218.66
2024-05-09T05:30:52.947Z,101221.34
2024-05-09T05:33:23.084Z,101222.19
2024-05-09T05:35:51.929Z,101223.13
2024-05-09T05:38:22.843Z,101223.13
2024-05-09T05:40:53.366Z,101231.06
2024-05-09T05:43:21.553Z,101232.88
2024-05-09T05:45:49.982Z,101226.59
2024-05-09T05:48:18.690Z,101226.53
2024-05-09T05:50:47.541Z,101224.72
2024-05-09T05:53:15.895Z,101229.97
2024-05-09T05:55:44.785Z,101228.25
2024-05-09T05:58:13.503Z,101230.84
2024-05-09T06:00:42.669Z,101229.09
2024-05-09T06:03:14.460Z,101229.09
2024-05-09T06:05:44.406Z,101232.56
2024-05-09T06:08:12.878Z,101229.91
2024-05-09T06:10:42.101Z,101228.97
2024-05-09T06:13:14.096Z,101231.66
2024-05-09T06:15:43.813Z,101239.66
2024-05-09T06:18:12.992Z,101231.66
2024-05-09T06:20:43.656Z,101241.38
2024-05-09T06:23:12.927Z,101242.25
2024-05-09T06:25:42.705Z,101243.13
2024-05-09T06:28:11.542Z,101241.31
2024-05-09T06:30:42.543Z,101237.78
2024-05-09T06:33:14.190Z,101239.53
2024-05-09T06:35:44.931Z,101235.91
2024-05-09T06:38:13.308Z,101241.25
2024-05-09T06:40:43.933Z,101248.34
2024-05-09T06:43:17.784Z,101253.72
2024-05-09T06:45:53.099Z,101249.25
2024-05-09T06:48:22.074Z,101251.00
2024-05-09T06:50:51.218Z,101256.22
2024-05-09T06:53:23.883Z,101251.81
2024-05-09T06:55:52.951Z,101251.75
2024-05-09T06:58:21.030Z,101253.47
2024-05-09T07:00:49.509Z,101255.28
2024-05-09T07:03:19.072Z,101253.53
2024-05-09T07:05:49.378Z,101254.41
2024-05-09T07:08:18.411Z,101259.69
2024-05-09T07:10:47.062Z,101256.06
2024-05-09T07:13:15.963Z,101257.00
2024-05-09T07:15:44.548Z,101258.69
2024-05-09T07:18:17.141Z,101256.88
2024-05-09T07:20:47.752Z,101269.25
2024-05-09T07:23:16.441Z,101256.88
2024-05-09T07:25:45.447Z,101265.81
2024-05-09T07:28:22.551Z,101258.75
2024-05-09T07:30:50.870Z,101263.16
2024-05-09T07:33:20.872Z,101256.00
2024-05-09T07:35:50.751Z,101260.47
2024-05-09T07:38:18.986Z,101265.81
2024-05-09T07:40:47.740Z,101258.59
2024-05-09T07:43:16.442Z,101266.59
2024-05-09T07:45:51.964Z,101267.56
2024-05-09T07:52:38.307Z,101258.59
2024-05-09T07:53:49.463Z,101263.91
2024-05-09T07:56:22.794Z,101259.44
2024-05-09T07:58:53.041Z,101262.06
2024-05-09T08:01:21.785Z,101257.66
2024-05-09T08:03:50.979Z,101258.59
2024-05-09T08:06:19.406Z,101261.25
2024-05-09T08:08:47.856Z,101265.66
2024-05-09T08:11:16.461Z,101270.06
2024-05-09T08:13:44.430Z,101263.78
2024-05-09T08:16:14.089Z,101267.25
2024-05-09T08:18:42.984Z,101264.59
2024-05-09T08:21:11.464Z,101261.78
2024-05-09T08:23:39.491Z,101261.66
2024-05-09T08:26:08.033Z,101267.88
2024-05-09T08:28:36.140Z,101266.06
2024-05-09T08:31:06.948Z,101268.72
2024-05-09T08:33:35.771Z,101269.59
2024-05-09T08:36:04.776Z,101266.00
2024-05-09T08:38:32.868Z,101267.72
2024-05-09T08:41:01.434Z,101267.66
2024-05-09T08:43:29.988Z,101263.25
2024-05-09T08:45:58.773Z,101265.00
2024-05-09T08:48:27.369Z,101268.44
2024-05-09T08:50:55.494Z,101276.50
2024-05-09T08:53:24.151Z,101276.44
2024-05-09T08:55:52.215Z,101270.16
2024-05-09T08:58:20.756Z,101266.56
2024-05-09T09:00:49.759Z,101270.03
2024-05-09T09:03:19.694Z,101270.03
2024-05-09T09:05:49.930Z,101268.31
2024-05-09T09:08:17.942Z,101266.56
2024-05-09T09:10:46.733Z,101265.69
2024-05-09T09:13:14.948Z,101261.22
2024-05-09T09:15:47.292Z,101266.56
2024-05-09T09:18:16.348Z,101264.84
2024-05-09T09:20:45.041Z,101267.44
2024-05-09T09:23:13.117Z,101263.03
2024-05-09T09:25:44.956Z,101267.50
2024-05-09T09:28:13.101Z,101264.69
2024-05-09T09:30:42.413Z,101261.22
2024-05-09T09:33:10.974Z,101258.56
2024-05-09T09:35:40.442Z,101262.97
2024-05-09T09:38:10.826Z,101268.31
2024-05-09T09:40:46.697Z,101264.69
2024-05-09T09:43:21.452Z,101273.56
2024-05-09T09:45:53.139Z,101264.69
2024-05-09T09:48:23.060Z,101270.03
2024-05-09T09:50:52.651Z,101270.97
2024-05-09T09:53:21.967Z,101262.03
2024-05-09T09:55:50.750Z,101262.03
2024-05-09T09:58:19.019Z,101260.28
2024-05-09T10:00:47.916Z,101262.16
2024-05-09T10:03:16.168Z,101264.84
2024-05-09T10:05:47.059Z,101267.50
2024-05-09T10:08:16.138Z,101265.63
2024-05-09T10:10:48.328Z,101257.63
2024-05-09T10:13:16.713Z,101268.16
2024-05-09T10:15:46.308Z,101257.50
2024-05-09T10:18:15.044Z,101261.97
2024-05-09T10:20:44.282Z,101246.94
2024-05-09T10:23:28.321Z,101252.22
2024-05-09T10:26:05.911Z,101244.19
2024-05-09T10:28:38.109Z,101246.81
2024-05-09T10:31:10.692Z,101241.59
2024-05-09T10:33:39.141Z,101239.72
2024-05-09T10:36:14.214Z,101243.19
2024-05-09T10:38:43.262Z,101237.88
2024-05-09T10:41:11.905Z,101244.94
2024-05-09T10:43:41.357Z,101240.44
2024-05-09T10:46:10.409Z,101244.84
2024-05-09T10:48:38.932Z,101243.09
2024-05-09T10:51:08.100Z,101237.63
2024-05-09T10:53:42.821Z,101238.56
2024-05-09T10:56:11.931Z,101228.81
2024-05-09T10:58:40.020Z,101225.34
2024-05-09T11:01:09.461Z,101235.88
2024-05-09T11:03:38.413Z,101227.06
2024-05-09T11:06:07.902Z,101225.28
2024-05-09T11:08:35.967Z,101224.63
2024-05-09T11:11:08.114Z,101222.28
2024-05-09T11:13:40.276Z,101224.16
2024-05-09T11:16:21.547Z,101225.69
2024-05-09T11:18:53.426Z,101227.50
2024-05-09T11:21:22.028Z,101231.81
2024-05-09T11:23:50.178Z,101228.56
2024-05-09T11:26:19.645Z,101216.38
2024-05-09T11:28:47.830Z,101220.47
2024-05-09T11:31:16.471Z,101219.69
2024-05-09T11:33:47.935Z,101217.81
2024-05-09T11:36:16.921Z,101226.19
2024-05-09T11:38:45.173Z,101212.66
2024-05-09T11:41:17.120Z,101204.81
2024-05-09T11:43:45.111Z,101206.31
2024-05-09T11:46:13.860Z,101217.56
2024-05-09T11:48:42.083Z,101210.56
2024-05-09T11:51:10.750Z,101212.22
2024-05-09T11:53:40.015Z,101210.41
2024-05-09T11:56:08.481Z,101201.03
2024-05-09T11:58:37.157Z,101201.34
2024-05-09T12:01:05.786Z,101192.38
2024-05-09T12:03:35.079Z,101191.53
2024-05-09T12:06:04.197Z,101188.81
2024-05-09T12:08:32.380Z,101191.13
2024-05-09T12:11:01.302Z,101196.16
2024-05-09T12:13:29.828Z,101191.78
2024-05-09T12:15:58.559Z,101187.28
2024-05-09T12:18:26.793Z,101179.91
2024-05-09T12:20:55.240Z,101191.69
2024-05-09T12:23:23.350Z,101188.88
2024-05-09T12:25:51.952Z,101173.44
2024-05-09T12:28:20.661Z,101181.66
2024-05-09T12:30:51.137Z,101175.59
2024-05-09T12:33:21.422Z,101171.81
2024-05-09T12:35:51.197Z,101177.78
2024-05-09T12:38:19.381Z,101180.78
2024-05-09T12:40:48.372Z,101167.00
2024-05-09T12:43:17.396Z,101165.47
2024-05-09T12:45:46.004Z,101164.66
2024-05-09T12:48:14.352Z,101174.16
2024-05-09T12:50:43.159Z,101166.19
2024-05-09T12:53:11.341Z,101164.47
2024-05-09T12:55:48.256Z,101160.13
2024-05-09T12:58:22.734Z,101166.47
2024-05-09T13:00:52.202Z,101155.59
2024-05-09T13:03:20.952Z,101159.41
2024-05-09T13:05:50.526Z,101159.22
2024-05-09T13:08:18.743Z,101155.44
2024-05-09T13:10:47.383Z,101158.47
2024-05-09T13:13:15.576Z,101163.47
2024-05-09T13:15:44.134Z,101162.50
2024-05-09T13:18:12.411Z,101152.63
2024-05-09T13:20:40.975Z,101157.88
2024-05-09T13:23:09.055Z,101145.38
2024-05-09T13:25:38.424Z,101146.41
2024-05-09T13:28:07.593Z,101141.69
2024-05-09T13:30:40.801Z,101142.63
2024-05-09T13:33:12.214Z,101147.75
2024-05-09T13:35:46.638Z,101143.50
2024-05-09T13:38:21.436Z,101141.44
2024-05-09T13:40:50.851Z,101137.56
2024-05-09T13:43:19.402Z,101134.31
2024-05-09T13:45:48.175Z,101125.91
2024-05-09T13:48:16.531Z,101127.28
2024-05-09T13:50:45.048Z,101121.38
2024-05-09T13:53:13.187Z,101119.78
2024-05-09T13:55:41.671Z,101118.84
2024-05-09T13:58:10.055Z,101113.63
2024-05-09T14:00:46.736Z,101109.72
2024-05-09T14:03:19.136Z,101097.91
2024-05-09T14:05:51.142Z,101091.63
2024-05-09T14:08:22.629Z,101098.66
2024-05-09T14:10:52.568Z,101093.16
2024-05-09T14:13:20.881Z,101089.06
2024-05-09T14:15:49.662Z,101087.94
2024-05-09T14:18:17.971Z,101088.91
2024-05-09T14:20:46.600Z,101083.88
2024-05-09T14:23:15.068Z,101079.94
2024-05-09T14:25:45.004Z,101086.09
2024-05-09T14:28:14.060Z,101080.41
2024-05-09T14:30:43.055Z,101079.16
2024-05-09T14:33:11.783Z,101083.22
2024-05-09T14:35:40.563Z,101078.16
2024-05-09T14:38:09.198Z,101073.28
2024-05-09T14:40:42.452Z,101080.09
2024-05-09T14:43:12.883Z,101069.88
2024-05-09T14:45:42.799Z,101072.31
2024-05-09T14:48:15.425Z,101069.41
2024-05-09T14:50:44.276Z,101066.81
2024-05-09T14:53:13.461Z,101065.41
2024-05-09T14:55:43.719Z,101061.38
2024-05-09T14:58:13.237Z,101068.63
2024-05-09T15:00:46.579Z,101063.78
2024-05-09T15:03:19.229Z,101063.19
2024-05-09T15:05:48.396Z,101061.09
2024-05-09T15:08:16.962Z,101065.25
2024-05-09T15:10:45.872Z,101058.97
2024-05-09T15:13:16.438Z,101061.63
2024-05-09T15:15:45.745Z,101056.38
2024-05-09T15:18:14.474Z,101053.69
2024-05-09T15:20:43.967Z,101050.69
2024-05-09T15:23:13.733Z,101056.59
2024-05-09T15:25:42.302Z,101048.84
2024-05-09T15:28:10.647Z,101055.06
2024-05-09T15:30:40.137Z,101048.66
2024-05-09T15:33:09.548Z,101054.13
2024-05-09T15:35:41.835Z,101056.28
2024-05-09T15:38:10.050Z,101044.19
2024-05-09T15:40:40.563Z,101051.09
2024-05-09T15:43:11.106Z,101047.31
2024-05-09T15:45:41.440Z,101045.59
2024-05-09T15:48:10.835Z,101049.53
2024-05-09T15:50:42.001Z,101041.50
2024-05-09T15:53:13.264Z,101043.16
2024-05-09T15:55:42.678Z,101042.81
2024-05-09T15:58:11.076Z,101034.84
2024-05-09T16:00:42.606Z,101039.03
2024-05-09T16:03:14.162Z,101039.59
2024-05-09T16:05:46.155Z,101044.19
2024-05-09T16:08:15.478Z,101036.34
2024-05-09T16:10:46.308Z,101038.50
2024-05-09T16:13:15.936Z,101036.06
2024-05-09T16:15:44.918Z,101036.25
2024-05-09T16:18:13.088Z,101037.28
2024-05-09T16:20:43.442Z,101033.66
2024-05-09T16:23:13.082Z,101035.22
2024-05-09T16:25:46.658Z,101037.22
2024-05-09T16:28:14.945Z,101044.53
2024-05-09T16:30:43.515Z,101041.06
2024-05-09T16:33:14.443Z,101033.84
2024-05-09T16:35:42.987Z,101039.19
2024-05-09T16:38:11.038Z,101036.59
2024-05-09T16:40:41.158Z,101037.28
2024-05-09T16:43:10.586Z,101043.59
2024-05-09T16:45:40.037Z,101047.22
2024-05-09T16:48:08.650Z,101041.06
2024-05-09T16:50:37.500Z,101042.03
2024-05-09T16:53:06.549Z,101046.50
2024-05-09T16:55:36.535Z,101041.22
2024-05-09T16:58:07.083Z,101049.09
2024-05-09T17:00:41.091Z,101047.38
2024-05-09T17:03:13.738Z,101044.94
2024-05-09T17:05:46.614Z,101035.25
2024-05-09T17:08:15.746Z,101041.06
2024-05-09T17:10:49.486Z,101035.09
2024-05-09T17:13:19.021Z,101033.44
2024-05-09T17:15:48.903Z,101035.44
2024-05-09T17:18:17.161Z,101042.50
2024-05-09T17:20:45.646Z,101039.16
2024-05-09T17:23:14.422Z,101040.00
2024-05-09T17:25:43.721Z,101047.09
2024-05-09T17:28:12.222Z,101049.94
2024-05-09T17:30:42.236Z,101041.03
2024-05-09T17:33:12.452Z,101036.78
2024-05-09T17:35:41.945Z,101035.84
2024-05-09T17:38:10.237Z,101045.69
2024-05-09T17:40:39.467Z,101049.47
2024-05-09T17:43:09.921Z,101049.31
2024-05-09T17:45:40.890Z,101042.44
2024-05-09T17:48:10.940Z,101049.63
2024-05-09T17:50:41.201Z,101046.00
2024-05-09T17:53:11.147Z,101053.41
2024-05-09T17:55:40.541Z,101054.28
2024-05-09T17:58:09.032Z,101057.03
2024-05-09T18:00:40.773Z,101056.25
2024-05-09T18:03:12.461Z,101055.53
2024-05-09T18:05:43.814Z,101064.53
2024-05-09T18:08:13.483Z,101063.69
2024-05-09T18:10:42.761Z,101067.28
2024-05-09T18:13:11.980Z,101070.03
2024-05-09T18:15:41.273Z,101063.84
2024-05-09T18:18:10.976Z,101064.69
2024-05-09T18:20:44.190Z,101062.97
2024-05-09T18:23:16.510Z,101061.44
2024-05-09T18:25:47.263Z,101060.72
2024-05-09T18:28:16.968Z,101064.31
2024-05-09T18:30:46.278Z,101066.38
2024-05-09T18:33:14.919Z,101067.94
2024-05-09T18:35:44.156Z,101079.66
2024-05-09T18:38:12.248Z,101079.66
2024-05-09T18:40:43.015Z,101081.53
2024-05-09T18:43:13.362Z,101079.00
2024-05-09T18:45:41.986Z,101081.69
2024-05-09T18:48:10.464Z,101090.56
2024-05-09T18:50:40.959Z,101088.94
2024-05-09T18:53:11.390Z,101088.94
2024-05-09T18:55:43.998Z,101096.00
2024-05-09T18:58:12.245Z,101102.38
2024-05-09T19:00:43.837Z,101111.28
2024-05-09T19:03:14.764Z,101103.41
2024-05-09T19:05:46.007Z,101112.28
2024-05-09T19:08:15.551Z,101115.97
2024-05-09T19:10:46.133Z,101123.03
2024-05-09T19:13:15.100Z,101123.03
2024-05-09T19:15:44.505Z,101128.31
2024-05-09T19:18:14.030Z,101133.59
2024-05-09T19:20:43.998Z,101142.53
2024-05-09T19:23:12.510Z,101146.16
2024-05-09T19:25:41.102Z,101161.47
2024-05-09T19:28:09.432Z,101154.31
2024-05-09T19:30:41.470Z,101167.69
2024-05-09T19:33:13.278Z,101166.47
2024-05-09T19:35:43.290Z,101170.06
2024-05-09T19:38:11.955Z,101179.97
2024-05-09T19:40:40.863Z,101186.41
2024-05-09T19:43:09.297Z,101188.91
2024-05-09T19:45:38.156Z,101186.31
2024-05-09T19:48:06.831Z,101194.34
2024-05-09T19:50:41.704Z,101199.03
2024-05-09T19:53:15.374Z,101196.00
2024-05-09T19:55:44.066Z,101197.41
2024-05-09T19:58:13.062Z,101199.00
2024-05-09T20:00:43.770Z,101211.34
2024-05-09T20:03:14.284Z,101212.22
2024-05-09T20:05:47.159Z,101211.28
2024-05-09T20:08:15.715Z,101216.56
2024-05-09T20:10:44.284Z,101225.44
2024-05-09T20:13:13.773Z,101225.44
2024-05-09T20:15:42.573Z,101229.91
2024-05-09T20:18:10.882Z,101233.47
2024-05-09T20:20:42.652Z,101239.59
2024-05-09T20:23:13.004Z,101242.28
2024-05-09T20:25:42.194Z,101244.09
2024-05-09T20:28:10.987Z,101243.22
2024-05-09T20:30:39.784Z,101243.22
2024-05-09T20:33:09.108Z,101245.88
2024-05-09T20:35:38.429Z,101253.03
2024-05-09T20:38:06.992Z,101254.78
2024-05-09T20:40:38.132Z,101252.97
2024-05-09T20:43:10.153Z,101253.03
2024-05-09T20:45:39.745Z,101259.25
2024-05-09T20:48:09.475Z,101258.31
2024-05-09T20:50:41.050Z,101268.22
2024-05-09T20:53:12.904Z,101258.38
2024-05-09T20:55:42.416Z,101268.22
2024-05-09T20:58:11.261Z,101264.59
2024-05-09T21:00:43.270Z,101264.59
2024-05-09T21:03:16.120Z,101269.94
2024-05-09T21:05:45.873Z,101267.28
2024-05-09T21:08:14.781Z,101262.88
2024-05-09T21:10:42.970Z,101260.19
2024-05-09T21:13:11.655Z,101261.13
2024-05-09T21:15:39.910Z,101261.13
2024-05-09T21:18:08.688Z,101264.59
2024-05-09T21:20:37.926Z,101259.25
2024-05-09T21:23:06.801Z,101267.34
2024-05-09T21:25:34.982Z,101263.81
2024-05-09T21:28:03.763Z,101260.19
2024-05-09T21:30:40.418Z,101265.53
2024-05-09T21:33:13.645Z,101267.28
2024-05-09T21:35:43.681Z,101267.28
2024-05-09T21:38:14.195Z,101255.84
2024-05-09T21:40:43.230Z,101262.88
2024-05-09T21:43:12.216Z,101260.13
2024-05-09T21:45:40.499Z,101269.00
2024-05-09T21:48:09.420Z,101272.56
2024-05-09T21:50:41.051Z,101273.41
2024-05-09T21:53:12.055Z,101271.69
2024-05-09T21:55:41.532Z,101274.34
2024-05-09T21:58:10.695Z,101277.03
2024-05-09T22:00:40.706Z,101274.34
2024-05-09T22:03:10.803Z,101276.16
2024-05-09T22:05:42.560Z,101278.84
2024-05-09T22:08:11.324Z,101283.25
2024-05-09T22:10:39.544Z,101282.38
2024-05-09T22:13:08.992Z,101284.19
2024-05-09T22:15:39.069Z,101279.69
2024-05-09T22:18:10.547Z,101284.19
2024-05-09T22:20:46.957Z,101280.66
2024-05-09T22:23:16.092Z,101285.06
2024-05-09T22:25:44.632Z,101286.00
2024-05-09T22:28:15.767Z,101289.53
2024-05-09T22:30:46.659Z,101293.06
2024-05-09T22:33:16.390Z,101295.75
2024-05-09T22:35:44.713Z,101289.53
2024-05-09T22:38:13.359Z,101293.94
2024-05-09T22:40:47.448Z,101295.75
2024-05-09T22:43:23.695Z,101298.41
2024-05-09T22:45:54.837Z,101296.69
2024-05-09T22:48:24.871Z,101295.75
2024-05-09T22:50:53.904Z,101294.81
2024-05-09T22:53:26.246Z,101298.41
2024-05-09T22:55:54.639Z,101290.41
2024-05-09T22:58:24.036Z,101300.16
2024-05-09T23:00:52.845Z,101295.75
2024-05-09T23:03:22.925Z,101300.16
2024-05-09T23:05:53.336Z,101300.16
2024-05-09T23:08:21.961Z,101304.53
2024-05-09T23:10:50.432Z,101296.69
2024-05-09T23:13:19.256Z,101293.94
2024-05-09T23:15:47.581Z,101301.09
2024-05-09T23:18:16.187Z,101293.94
2024-05-09T23:20:44.263Z,101297.47
2024-05-09T23:23:12.823Z,101293.06
2024-05-09T23:25:41.921Z,101298.41
2024-05-09T23:28:11.089Z,101293.06
2024-05-09T23:30:41.123Z,101295.75
2024-05-09T23:33:11.486Z,101286.84
2024-05-09T23:35:41.106Z,101289.47
2024-05-09T23:38:09.620Z,101285.06
2024-05-09T23:40:40.462Z,101284.25
2024-05-09T23:43:11.037Z,101276.16
2024-05-09T23:45:39.831Z,101278.91
2024-05-09T23:48:08.964Z,101274.44
2024-05-09T23:50:39.092Z,101282.53
2024-05-09T23:53:09.925Z,101276.38
2024-05-09T23:55:38.989Z,101275.50
2024-05-09T23:58:08.521Z,101272.84
